createdAt,value
2023-03-06T00:00:23.484Z,5.8
2023-03-06T00:05:23.628Z,5.7
2023-03-06T00:10:23.487Z,7.2
2023-03-06T00:15:23.587Z,5.7
2023-03-06T00:20:23.496Z,6.6
2023-03-06T00:25:23.599Z,5.5
2023-03-06T00:30:23.584Z,7.1
2023-03-06T00:35:23.647Z,6.7
2023-03-06T00:40:23.592Z,8.0
2023-03-06T00:45:23.648Z,6.2
2023-03-06T00:50:23.622Z,7.2
2023-03-06T00:55:23.609Z,8.7
2023-03-06T01:00:23.610Z,8.4
2023-03-06T01:05:23.602Z,7.3
2023-03-06T01:10:23.612Z,9.0
2023-03-06T01:15:23.611Z,8.5
2023-03-06T01:20:23.697Z,8.4
2023-03-06T01:25:23.628Z,10.1
2023-03-06T01:30:23.606Z,10.5
2023-03-06T01:35:23.625Z,9.3
2023-03-06T01:40:23.631Z,8.4
2023-03-06T01:45:23.630Z,8.5
2023-03-06T01:50:23.624Z,8.0
2023-03-06T01:55:23.626Z,7.5
2023-03-06T02:00:23.626Z,7.9
2023-03-06T02:05:23.630Z,4.9
2023-03-06T02:10:23.631Z,7.1
2023-03-06T02:15:23.632Z,6.5
2023-03-06T02:20:23.638Z,7.7
2023-03-06T02:25:23.644Z,7.8
2023-03-06T02:30:23.646Z,8.0
2023-03-06T02:35:23.768Z,10.3
2023-03-06T02:40:23.642Z,10.2
2023-03-06T02:45:23.659Z,10.1
2023-03-06T02:50:23.647Z,10.3
2023-03-06T02:55:23.645Z,9.9
2023-03-06T03:00:23.647Z,10.0
2023-03-06T03:05:23.652Z,11.3
2023-03-06T03:10:23.651Z,11.2
2023-03-06T03:15:23.654Z,9.3
2023-03-06T03:20:23.658Z,9.9
2023-03-06T03:25:23.670Z,10.4
2023-03-06T03:30:23.680Z,12.0
2023-03-06T03:35:23.693Z,11.1
2023-03-06T03:40:23.665Z,11.3
2023-03-06T03:45:23.671Z,9.3
2023-03-06T03:50:23.674Z,11.1
2023-03-06T03:55:23.667Z,11.3
2023-03-06T04:00:23.669Z,11.6
2023-03-06T04:05:23.675Z,11.4
2023-03-06T04:10:23.684Z,12.4
2023-03-06T04:15:23.681Z,12.0
2023-03-06T04:20:23.687Z,12.7
2023-03-06T04:25:23.691Z,13.5
2023-03-06T04:30:23.684Z,11.6
2023-03-06T04:35:23.725Z,10.2
2023-03-06T04:40:23.701Z,12.9
2023-03-06T04:45:23.731Z,12.0
2023-03-06T04:50:23.710Z,12.0
2023-03-06T04:55:23.807Z,11.1
2023-03-06T05:00:23.711Z,12.2
2023-03-06T05:05:23.707Z,13.2
2023-03-06T05:10:23.711Z,12.9
2023-03-06T05:15:23.704Z,11.0
2023-03-06T05:20:23.712Z,11.6
2023-03-06T05:25:23.719Z,9.7
2023-03-06T05:30:23.725Z,13.5
2023-03-06T05:35:23.780Z,12.7
2023-03-06T05:40:23.816Z,11.8
2023-03-06T05:45:23.726Z,13.0
2023-03-06T05:50:23.727Z,13.5
2023-03-06T05:55:23.730Z,13.8
2023-03-06T06:00:23.734Z,12.8
2023-03-06T06:05:23.730Z,14.0
2023-03-06T06:10:23.750Z,13.7
2023-03-06T06:15:23.746Z,13.5
2023-03-06T06:20:23.738Z,14.1
2023-03-06T06:25:23.740Z,14.5
2023-03-06T06:30:23.771Z,13.9
2023-03-06T06:35:23.776Z,16.7
2023-03-06T06:40:23.749Z,13.2
2023-03-06T06:45:23.765Z,15.6
2023-03-06T06:50:23.795Z,17.4
2023-03-06T06:55:23.781Z,16.2
2023-03-06T07:00:23.775Z,16.2
2023-03-06T07:05:23.821Z,15.2
2023-03-06T07:10:23.818Z,18.8
2023-03-06T07:15:23.767Z,17.2
2023-03-06T07:20:24.097Z,16.5
2023-03-06T07:25:23.772Z,17.5
2023-03-06T07:30:23.980Z,17.2
2023-03-06T07:35:23.789Z,17.7
2023-03-06T07:40:23.791Z,16.4
2023-03-06T07:45:23.797Z,16.4
2023-03-06T07:50:23.806Z,14.3
2023-03-06T07:55:23.800Z,16.6
2023-03-06T08:00:23.823Z,16.0
2023-03-06T08:05:23.809Z,14.1
2023-03-06T08:10:24.133Z,16.1
2023-03-06T08:15:23.810Z,16.1
2023-03-06T08:20:23.815Z,18.9
2023-03-06T08:25:23.821Z,14.0
2023-03-06T08:30:23.817Z,17.1
2023-03-06T08:35:23.839Z,19.6
2023-03-06T08:40:23.844Z,14.7
2023-03-06T08:45:23.885Z,15.1
2023-03-06T08:50:24.210Z,13.4
2023-03-06T08:55:23.738Z,15.5
2023-03-06T09:00:23.753Z,13.1
2023-03-06T09:05:23.749Z,11.0
2023-03-06T09:10:23.844Z,13.0
2023-03-06T09:15:23.778Z,11.2
2023-03-06T09:20:23.831Z,8.2
2023-03-06T09:25:23.858Z,8.3
2023-03-06T09:30:23.889Z,9.2
2023-03-06T09:35:23.971Z,5.5
2023-03-06T09:40:23.869Z,5.3
2023-03-06T09:45:23.871Z,5.2
2023-03-06T09:50:23.891Z,4.5
2023-03-06T09:55:23.871Z,4.8
2023-03-06T10:00:23.879Z,4.9
2023-03-06T10:05:23.882Z,3.0
2023-03-06T10:10:23.888Z,2.9
2023-03-06T10:15:23.888Z,2.7
2023-03-06T10:20:23.898Z,3.3
2023-03-06T10:25:23.896Z,2.7
2023-03-06T10:30:23.912Z,1.6
2023-03-06T10:35:23.970Z,2.1
2023-03-06T10:40:23.923Z,2.0
2023-03-06T10:45:23.910Z,2.0
2023-03-06T10:50:23.938Z,3.4
2023-03-06T10:55:23.923Z,2.5
2023-03-06T11:00:23.936Z,3.2
2023-03-06T11:05:23.928Z,3.3
2023-03-06T11:10:23.929Z,3.1
2023-03-06T11:15:23.929Z,3.0
2023-03-06T11:20:23.929Z,2.8
2023-03-06T11:25:23.938Z,4.2
2023-03-06T11:30:23.989Z,4.7
2023-03-06T11:35:23.993Z,3.8
2023-03-06T11:40:23.935Z,3.1
2023-03-06T11:45:23.973Z,3.5
2023-03-06T11:50:23.954Z,2.4
2023-03-06T11:55:23.955Z,3.3
2023-03-06T12:00:23.970Z,3.0
2023-03-06T12:05:24.157Z,3.3
2023-03-06T12:10:24.029Z,3.0
2023-03-06T12:15:23.978Z,3.7
2023-03-06T12:20:23.985Z,6.1
2023-03-06T12:25:23.996Z,4.3
2023-03-06T12:40:23.973Z,3.8
2023-03-06T12:45:23.977Z,3.5
2023-03-06T12:50:23.996Z,3.2
2023-03-06T12:55:26.152Z,5.1
2023-03-06T13:00:23.991Z,5.6
2023-03-06T13:05:23.997Z,6.2
2023-03-06T13:10:24.010Z,7.2
2023-03-06T13:15:24.009Z,8.3
2023-03-06T13:20:24.018Z,7.7
2023-03-06T13:25:24.018Z,9.1
2023-03-06T13:30:24.008Z,9.0
2023-03-06T13:35:24.061Z,7.9
2023-03-06T13:40:24.012Z,10.9
2023-03-06T13:45:24.013Z,8.8
2023-03-06T13:50:24.023Z,8.2
2023-03-06T13:55:24.019Z,8.4
2023-03-06T14:00:24.014Z,9.8
2023-03-06T14:05:24.035Z,7.8
2023-03-06T14:10:24.018Z,9.0
2023-03-06T14:15:24.018Z,8.4
2023-03-06T14:20:24.019Z,7.2
2023-03-06T14:25:24.050Z,9.2
2023-03-06T14:30:26.428Z,7.8
2023-03-06T14:35:24.083Z,7.2
2023-03-06T14:40:24.045Z,7.6
2023-03-06T14:45:24.037Z,7.8
2023-03-06T14:50:24.048Z,6.8
2023-03-06T14:55:24.044Z,7.9
2023-03-06T15:00:24.113Z,6.3
2023-03-06T15:05:24.060Z,8.5
2023-03-06T15:10:24.238Z,7.8
2023-03-06T15:15:24.052Z,10.1
2023-03-06T15:20:24.115Z,10.1
2023-03-06T15:25:24.106Z,8.9
2023-03-06T15:30:24.072Z,9.8
2023-03-06T15:35:24.131Z,10.4
2023-03-06T15:40:24.069Z,8.6
2023-03-06T15:45:24.115Z,8.1
2023-03-06T15:50:24.074Z,10.8
2023-03-06T15:55:24.074Z,12.6
2023-03-06T16:00:28.479Z,14.9
2023-03-06T16:05:24.092Z,16.5
2023-03-06T16:10:24.073Z,16.7
2023-03-06T16:15:24.077Z,21.5
2023-03-06T16:20:24.076Z,18.4
2023-03-06T16:25:24.086Z,18.6
2023-03-06T16:30:24.075Z,16.5
2023-03-06T16:35:24.120Z,18.0
2023-03-06T16:40:24.088Z,19.3
2023-03-06T16:45:24.088Z,19.7
2023-03-06T16:50:24.098Z,19.8
2023-03-06T16:55:24.132Z,21.1
2023-03-06T17:00:24.098Z,23.5
2023-03-06T17:05:24.109Z,21.8
2023-03-06T17:10:24.117Z,23.8
2023-03-06T17:15:24.281Z,26.1
2023-03-06T17:20:24.130Z,21.4
2023-03-06T17:25:24.141Z,22.2
2023-03-06T17:30:24.115Z,23.9
2023-03-06T17:35:24.155Z,23.4
2023-03-06T17:40:24.114Z,21.6
2023-03-06T17:45:24.121Z,21.4
2023-03-06T17:50:24.119Z,22.6
2023-03-06T17:55:24.122Z,23.8
2023-03-06T18:00:24.130Z,24.0
2023-03-06T18:05:24.126Z,25.2
2023-03-06T18:10:24.124Z,27.5
2023-03-06T18:15:24.030Z,26.4
2023-03-06T18:20:24.132Z,23.8
2023-03-06T18:25:24.065Z,28.8
2023-03-06T18:30:24.047Z,26.4
2023-03-06T18:35:24.056Z,24.3
2023-03-06T18:40:25.060Z,26.3
2023-03-06T18:45:24.041Z,23.0
2023-03-06T18:50:24.050Z,23.5
2023-03-06T18:55:24.048Z,25.0
2023-03-06T19:00:24.052Z,25.6
2023-03-06T19:05:24.250Z,25.6
2023-03-06T19:10:24.058Z,22.0
2023-03-06T19:15:24.106Z,24.2
2023-03-06T19:20:24.172Z,25.9
2023-03-06T19:25:24.074Z,21.2
2023-03-06T19:30:24.074Z,21.4
2023-03-06T19:35:24.159Z,21.4
2023-03-06T19:40:24.082Z,20.5
2023-03-06T19:45:24.082Z,19.6
2023-03-06T19:50:24.093Z,19.8
2023-03-06T19:55:24.086Z,21.3
2023-03-06T20:00:24.096Z,21.0
2023-03-06T20:05:24.089Z,20.1
2023-03-06T20:10:24.095Z,18.5
2023-03-06T20:15:24.098Z,19.3
2023-03-06T20:20:24.118Z,21.7
2023-03-06T20:25:24.097Z,20.3
2023-03-06T20:30:25.227Z,20.1
2023-03-06T20:35:24.108Z,23.2
2023-03-06T20:40:24.126Z,22.9
2023-03-06T20:45:24.104Z,21.6
2023-03-06T20:50:24.122Z,24.1
2023-03-06T20:55:24.117Z,22.4
2023-03-06T21:00:24.108Z,22.0
2023-03-06T21:05:24.110Z,21.2
2023-03-06T21:10:24.116Z,22.7
2023-03-06T21:15:24.121Z,20.8
2023-03-06T21:20:24.127Z,22.3
2023-03-06T21:25:24.125Z,23.6
2023-03-06T21:30:24.130Z,21.5
2023-03-06T21:35:24.135Z,24.3
2023-03-06T21:40:24.141Z,21.6
2023-03-06T21:45:25.949Z,22.4
2023-03-06T21:50:24.137Z,23.9
2023-03-06T21:55:24.146Z,22.7
2023-03-06T22:00:24.155Z,23.4
2023-03-06T22:05:24.147Z,19.1
2023-03-06T22:10:24.148Z,22.2
2023-03-06T22:15:24.150Z,22.7
2023-03-06T22:20:24.177Z,22.4
2023-03-06T22:25:24.480Z,21.5
2023-03-06T22:30:24.163Z,21.1
2023-03-06T22:35:24.164Z,17.8
2023-03-06T22:40:24.157Z,19.0
2023-03-06T22:45:24.167Z,18.7
2023-03-06T22:50:24.165Z,16.8
2023-03-06T22:55:24.166Z,13.6
2023-03-06T23:00:24.165Z,15.6
2023-03-06T23:05:24.174Z,15.9
2023-03-06T23:10:24.180Z,12.9
2023-03-06T23:15:24.192Z,12.0
2023-03-06T23:20:24.199Z,12.5
2023-03-06T23:25:24.188Z,12.1
2023-03-06T23:30:24.192Z,12.8
2023-03-06T23:35:24.264Z,10.7
2023-03-06T23:40:24.203Z,11.2
2023-03-06T23:45:24.200Z,11.3
2023-03-06T23:50:24.203Z,11.0
2023-03-06T23:55:24.313Z,9.0
